sensor_id;sensor_type;location;lat;lon;timestamp;P1;durP1;ratioP1;P2;durP2;ratioP2
37877;SDS011;23715;53.652;8.516;2023-07-22T00:06:56;44.27;;;41.37;;
37877;SDS011;23715;53.652;8.516;2023-07-22T00:11:57;44.05;;;41.28;;
37877;SDS011;23715;53.652;8.516;2023-07-22T00:16:57;41.95;;;39.18;;
37877;SDS011;23715;53.652;8.516;2023-07-22T00:26:57;43.68;;;40.73;;
37877;SDS011;23715;53.652;8.516;2023-07-22T00:31:57;39.75;;;36.85;;
37877;SDS011;23715;53.652;8.516;2023-07-22T00:36:57;46.42;;;43.35;;
37877;SDS011;23715;53.652;8.516;2023-07-22T00:41:57;46.13;;;43.13;;
37877;SDS011;23715;53.652;8.516;2023-07-22T00:46:58;46.28;;;43.63;;
37877;SDS011;23715;53.652;8.516;2023-07-22T00:52:00;47.70;;;44.47;;
37877;SDS011;23715;53.652;8.516;2023-07-22T00:57:04;47.93;;;44.98;;
37877;SDS011;23715;53.652;8.516;2023-07-22T01:02:06;51.02;;;47.48;;
37877;SDS011;23715;53.652;8.516;2023-07-22T01:07:06;48.87;;;46.08;;
37877;SDS011;23715;53.652;8.516;2023-07-22T01:12:08;46.73;;;43.83;;
37877;SDS011;23715;53.652;8.516;2023-07-22T01:17:10;48.68;;;45.75;;
37877;SDS011;23715;53.652;8.516;2023-07-22T01:22:11;51.30;;;48.28;;
37877;SDS011;23715;53.652;8.516;2023-07-22T01:27:13;53.20;;;49.90;;
37877;SDS011;23715;53.652;8.516;2023-07-22T01:32:14;51.23;;;47.83;;
37877;SDS011;23715;53.652;8.516;2023-07-22T01:37:15;48.55;;;45.65;;
37877;SDS011;23715;53.652;8.516;2023-07-22T01:42:15;48.17;;;44.95;;
37877;SDS011;23715;53.652;8.516;2023-07-22T01:47:16;49.30;;;46.20;;
37877;SDS011;23715;53.652;8.516;2023-07-22T01:52:16;50.52;;;47.45;;
37877;SDS011;23715;53.652;8.516;2023-07-22T01:57:17;49.65;;;46.37;;
37877;SDS011;23715;53.652;8.516;2023-07-22T02:07:18;53.13;;;49.83;;
37877;SDS011;23715;53.652;8.516;2023-07-22T02:12:18;55.30;;;51.80;;
37877;SDS011;23715;53.652;8.516;2023-07-22T02:17:19;51.25;;;48.08;;
37877;SDS011;23715;53.652;8.516;2023-07-22T02:22:19;54.33;;;51.10;;
37877;SDS011;23715;53.652;8.516;2023-07-22T02:27:20;50.98;;;47.85;;
37877;SDS011;23715;53.652;8.516;2023-07-22T02:32:20;50.33;;;47.20;;
37877;SDS011;23715;53.652;8.516;2023-07-22T02:37:21;54.87;;;51.73;;
37877;SDS011;23715;53.652;8.516;2023-07-22T02:42:21;48.58;;;45.78;;
37877;SDS011;23715;53.652;8.516;2023-07-22T02:47:21;46.65;;;43.80;;
37877;SDS011;23715;53.652;8.516;2023-07-22T02:52:21;49.70;;;46.68;;
37877;SDS011;23715;53.652;8.516;2023-07-22T02:57:22;50.08;;;46.75;;
37877;SDS011;23715;53.652;8.516;2023-07-22T03:02:22;53.13;;;49.60;;
37877;SDS011;23715;53.652;8.516;2023-07-22T03:07:22;56.88;;;53.25;;
37877;SDS011;23715;53.652;8.516;2023-07-22T03:12:24;56.13;;;52.88;;
37877;SDS011;23715;53.652;8.516;2023-07-22T03:17:25;57.85;;;54.70;;
37877;SDS011;23715;53.652;8.516;2023-07-22T03:22:26;55.08;;;51.45;;
37877;SDS011;23715;53.652;8.516;2023-07-22T03:27:26;50.12;;;47.33;;
37877;SDS011;23715;53.652;8.516;2023-07-22T03:32:26;47.70;;;44.93;;
37877;SDS011;23715;53.652;8.516;2023-07-22T03:37:26;43.40;;;40.95;;
37877;SDS011;23715;53.652;8.516;2023-07-22T03:42:28;40.28;;;38.02;;
37877;SDS011;23715;53.652;8.516;2023-07-22T03:47:29;34.78;;;32.88;;
37877;SDS011;23715;53.652;8.516;2023-07-22T03:52:29;33.13;;;31.27;;
37877;SDS011;23715;53.652;8.516;2023-07-22T03:57:30;37.05;;;35.05;;
37877;SDS011;23715;53.652;8.516;2023-07-22T04:02:31;41.68;;;39.42;;
37877;SDS011;23715;53.652;8.516;2023-07-22T04:07:31;37.20;;;35.20;;
37877;SDS011;23715;53.652;8.516;2023-07-22T04:12:31;38.57;;;36.47;;
37877;SDS011;23715;53.652;8.516;2023-07-22T04:17:32;34.70;;;32.70;;
37877;SDS011;23715;53.652;8.516;2023-07-22T04:22:32;39.95;;;37.65;;
37877;SDS011;23715;53.652;8.516;2023-07-22T04:27:32;39.35;;;36.95;;
37877;SDS011;23715;53.652;8.516;2023-07-22T04:32:34;41.45;;;39.10;;
37877;SDS011;23715;53.652;8.516;2023-07-22T04:37:34;44.48;;;41.98;;
37877;SDS011;23715;53.652;8.516;2023-07-22T04:42:35;39.83;;;37.73;;
37877;SDS011;23715;53.652;8.516;2023-07-22T04:47:35;39.05;;;36.80;;
37877;SDS011;23715;53.652;8.516;2023-07-22T04:52:41;39.60;;;37.48;;
37877;SDS011;23715;53.652;8.516;2023-07-22T04:57:42;39.78;;;37.60;;
37877;SDS011;23715;53.652;8.516;2023-07-22T05:02:43;39.20;;;36.97;;
37877;SDS011;23715;53.652;8.516;2023-07-22T05:07:44;40.92;;;38.70;;
37877;SDS011;23715;53.652;8.516;2023-07-22T05:17:44;40.77;;;38.43;;
37877;SDS011;23715;53.652;8.516;2023-07-22T05:27:44;38.63;;;36.40;;
37877;SDS011;23715;53.652;8.516;2023-07-22T05:32:44;40.45;;;38.30;;
37877;SDS011;23715;53.652;8.516;2023-07-22T05:37:44;39.80;;;37.63;;
37877;SDS011;23715;53.652;8.516;2023-07-22T05:42:46;39.30;;;37.08;;
37877;SDS011;23715;53.652;8.516;2023-07-22T05:47:47;41.03;;;38.73;;
37877;SDS011;23715;53.652;8.516;2023-07-22T05:52:50;41.65;;;38.88;;
37877;SDS011;23715;53.652;8.516;2023-07-22T05:57:50;44.42;;;41.92;;
37877;SDS011;23715;53.652;8.516;2023-07-22T06:02:50;43.50;;;40.85;;
37877;SDS011;23715;53.652;8.516;2023-07-22T06:07:51;42.30;;;39.93;;
37877;SDS011;23715;53.652;8.516;2023-07-22T06:12:52;38.78;;;36.38;;
37877;SDS011;23715;53.652;8.516;2023-07-22T06:17:53;39.55;;;37.38;;
37877;SDS011;23715;53.652;8.516;2023-07-22T06:22:53;35.83;;;33.92;;
37877;SDS011;23715;53.652;8.516;2023-07-22T06:27:53;37.75;;;35.73;;
37877;SDS011;23715;53.652;8.516;2023-07-22T06:32:54;33.30;;;31.50;;
37877;SDS011;23715;53.652;8.516;2023-07-22T06:37:57;34.73;;;32.73;;
37877;SDS011;23715;53.652;8.516;2023-07-22T06:43:02;35.33;;;33.30;;
37877;SDS011;23715;53.652;8.516;2023-07-22T06:48:04;33.00;;;31.10;;
37877;SDS011;23715;53.652;8.516;2023-07-22T06:53:04;37.40;;;34.98;;
37877;SDS011;23715;53.652;8.516;2023-07-22T06:58:05;36.28;;;34.27;;
37877;SDS011;23715;53.652;8.516;2023-07-22T07:03:08;35.55;;;33.58;;
37877;SDS011;23715;53.652;8.516;2023-07-22T07:08:08;38.08;;;35.90;;
37877;SDS011;23715;53.652;8.516;2023-07-22T07:13:09;41.30;;;38.88;;
37877;SDS011;23715;53.652;8.516;2023-07-22T07:18:09;42.93;;;40.50;;
37877;SDS011;23715;53.652;8.516;2023-07-22T07:23:09;39.30;;;36.93;;
37877;SDS011;23715;53.652;8.516;2023-07-22T07:28:13;36.20;;;34.18;;
37877;SDS011;23715;53.652;8.516;2023-07-22T07:33:13;38.83;;;36.83;;
37877;SDS011;23715;53.652;8.516;2023-07-22T07:38:13;39.42;;;37.23;;
37877;SDS011;23715;53.652;8.516;2023-07-22T07:43:16;40.50;;;38.30;;
37877;SDS011;23715;53.652;8.516;2023-07-22T07:48:15;36.35;;;33.95;;
37877;SDS011;23715;53.652;8.516;2023-07-22T07:53:19;32.88;;;30.97;;
37877;SDS011;23715;53.652;8.516;2023-07-22T07:58:19;36.50;;;34.38;;
37877;SDS011;23715;53.652;8.516;2023-07-22T08:03:19;29.12;;;27.25;;
37877;SDS011;23715;53.652;8.516;2023-07-22T08:13:20;30.25;;;28.25;;
37877;SDS011;23715;53.652;8.516;2023-07-22T08:18:20;32.42;;;30.52;;
37877;SDS011;23715;53.652;8.516;2023-07-22T08:23:20;29.65;;;28.02;;
37877;SDS011;23715;53.652;8.516;2023-07-22T08:28:21;30.50;;;28.85;;
37877;SDS011;23715;53.652;8.516;2023-07-22T08:33:21;30.52;;;28.92;;
37877;SDS011;23715;53.652;8.516;2023-07-22T08:38:22;30.50;;;28.80;;
37877;SDS011;23715;53.652;8.516;2023-07-22T08:48:24;30.85;;;29.15;;
37877;SDS011;23715;53.652;8.516;2023-07-22T08:53:26;32.58;;;30.85;;
37877;SDS011;23715;53.652;8.516;2023-07-22T08:58:26;27.22;;;25.55;;
37877;SDS011;23715;53.652;8.516;2023-07-22T09:03:28;29.20;;;27.52;;
37877;SDS011;23715;53.652;8.516;2023-07-22T09:08:28;23.95;;;22.52;;
37877;SDS011;23715;53.652;8.516;2023-07-22T09:13:30;26.00;;;24.55;;
37877;SDS011;23715;53.652;8.516;2023-07-22T09:18:33;22.95;;;21.65;;
37877;SDS011;23715;53.652;8.516;2023-07-22T09:23:34;26.50;;;24.80;;
37877;SDS011;23715;53.652;8.516;2023-07-22T09:28:53;27.42;;;25.77;;
37877;SDS011;23715;53.652;8.516;2023-07-22T09:33:58;24.50;;;23.20;;
37877;SDS011;23715;53.652;8.516;2023-07-22T09:39:00;23.00;;;21.50;;
37877;SDS011;23715;53.652;8.516;2023-07-22T09:44:02;22.50;;;21.07;;
37877;SDS011;23715;53.652;8.516;2023-07-22T09:49:07;22.13;;;20.53;;
37877;SDS011;23715;53.652;8.516;2023-07-22T09:54:08;23.50;;;21.90;;
37877;SDS011;23715;53.652;8.516;2023-07-22T09:59:09;21.25;;;19.75;;
37877;SDS011;23715;53.652;8.516;2023-07-22T10:04:10;20.90;;;19.40;;
37877;SDS011;23715;53.652;8.516;2023-07-22T10:09:13;19.77;;;18.27;;
37877;SDS011;23715;53.652;8.516;2023-07-22T10:14:16;18.45;;;17.12;;
37877;SDS011;23715;53.652;8.516;2023-07-22T10:19:17;20.80;;;19.17;;
37877;SDS011;23715;53.652;8.516;2023-07-22T10:24:18;19.85;;;18.35;;
37877;SDS011;23715;53.652;8.516;2023-07-22T10:29:20;20.40;;;18.50;;
37877;SDS011;23715;53.652;8.516;2023-07-22T10:34:21;21.02;;;19.30;;
37877;SDS011;23715;53.652;8.516;2023-07-22T10:39:27;19.67;;;18.00;;
37877;SDS011;23715;53.652;8.516;2023-07-22T10:44:28;19.82;;;18.23;;
37877;SDS011;23715;53.652;8.516;2023-07-22T10:49:43;20.10;;;18.62;;
37877;SDS011;23715;53.652;8.516;2023-07-22T10:54:45;20.75;;;19.15;;
37877;SDS011;23715;53.652;8.516;2023-07-22T10:59:49;20.47;;;18.70;;
37877;SDS011;23715;53.652;8.516;2023-07-22T11:04:50;21.85;;;20.10;;
37877;SDS011;23715;53.652;8.516;2023-07-22T11:09:50;23.80;;;22.03;;
37877;SDS011;23715;53.652;8.516;2023-07-22T11:14:52;31.42;;;29.37;;
37877;SDS011;23715;53.652;8.516;2023-07-22T11:19:55;29.92;;;27.98;;
37877;SDS011;23715;53.652;8.516;2023-07-22T11:24:56;25.37;;;23.47;;
37877;SDS011;23715;53.652;8.516;2023-07-22T11:29:57;28.15;;;25.80;;
37877;SDS011;23715;53.652;8.516;2023-07-22T11:34:58;32.25;;;29.70;;
37877;SDS011;23715;53.652;8.516;2023-07-22T11:40:01;27.95;;;25.65;;
37877;SDS011;23715;53.652;8.516;2023-07-22T11:45:01;30.97;;;28.83;;
37877;SDS011;23715;53.652;8.516;2023-07-22T11:50:02;40.95;;;37.35;;
37877;SDS011;23715;53.652;8.516;2023-07-22T11:55:07;42.53;;;39.33;;
37877;SDS011;23715;53.652;8.516;2023-07-22T12:00:10;40.70;;;37.48;;
37877;SDS011;23715;53.652;8.516;2023-07-22T12:05:11;42.55;;;39.95;;
37877;SDS011;23715;53.652;8.516;2023-07-22T12:10:12;39.80;;;37.07;;
37877;SDS011;23715;53.652;8.516;2023-07-22T12:15:16;41.42;;;39.00;;
37877;SDS011;23715;53.652;8.516;2023-07-22T12:20:18;40.80;;;38.40;;
37877;SDS011;23715;53.652;8.516;2023-07-22T12:25:20;42.55;;;40.03;;
37877;SDS011;23715;53.652;8.516;2023-07-22T12:30:20;45.67;;;42.98;;
37877;SDS011;23715;53.652;8.516;2023-07-22T12:35:22;47.78;;;44.70;;
37877;SDS011;23715;53.652;8.516;2023-07-22T12:40:22;48.25;;;45.45;;
37877;SDS011;23715;53.652;8.516;2023-07-22T12:45:23;44.73;;;42.03;;
37877;SDS011;23715;53.652;8.516;2023-07-22T12:50:25;45.78;;;43.05;;
37877;SDS011;23715;53.652;8.516;2023-07-22T12:55:25;46.73;;;43.93;;
37877;SDS011;23715;53.652;8.516;2023-07-22T13:00:28;47.80;;;44.90;;
37877;SDS011;23715;53.652;8.516;2023-07-22T13:10:28;40.17;;;37.88;;
37877;SDS011;23715;53.652;8.516;2023-07-22T13:15:30;41.80;;;39.08;;
37877;SDS011;23715;53.652;8.516;2023-07-22T13:20:31;44.42;;;41.92;;
37877;SDS011;23715;53.652;8.516;2023-07-22T13:25:31;45.33;;;42.73;;
37877;SDS011;23715;53.652;8.516;2023-07-22T13:30:31;47.80;;;44.93;;
37877;SDS011;23715;53.652;8.516;2023-07-22T13:35:36;48.15;;;45.20;;
37877;SDS011;23715;53.652;8.516;2023-07-22T13:40:36;48.05;;;44.95;;
37877;SDS011;23715;53.652;8.516;2023-07-22T13:45:40;48.40;;;45.40;;
37877;SDS011;23715;53.652;8.516;2023-07-22T13:50:40;49.83;;;46.90;;
37877;SDS011;23715;53.652;8.516;2023-07-22T13:55:41;49.35;;;46.48;;
37877;SDS011;23715;53.652;8.516;2023-07-22T14:00:44;49.93;;;46.95;;
37877;SDS011;23715;53.652;8.516;2023-07-22T14:05:49;48.92;;;45.78;;
37877;SDS011;23715;53.652;8.516;2023-07-22T14:10:49;51.00;;;47.53;;
37877;SDS011;23715;53.652;8.516;2023-07-22T14:15:49;53.15;;;49.33;;
37877;SDS011;23715;53.652;8.516;2023-07-22T14:20:50;51.42;;;48.20;;
37877;SDS011;23715;53.652;8.516;2023-07-22T14:25:50;50.88;;;47.58;;
37877;SDS011;23715;53.652;8.516;2023-07-22T14:30:52;51.15;;;47.98;;
37877;SDS011;23715;53.652;8.516;2023-07-22T14:35:52;49.77;;;46.87;;
37877;SDS011;23715;53.652;8.516;2023-07-22T14:40:56;47.13;;;44.15;;
37877;SDS011;23715;53.652;8.516;2023-07-22T14:50:57;47.33;;;44.53;;
37877;SDS011;23715;53.652;8.516;2023-07-22T14:55:58;49.67;;;46.77;;
37877;SDS011;23715;53.652;8.516;2023-07-22T15:05:59;49.10;;;46.00;;
37877;SDS011;23715;53.652;8.516;2023-07-22T15:11:03;48.70;;;45.50;;
37877;SDS011;23715;53.652;8.516;2023-07-22T15:16:03;45.08;;;42.25;;
37877;SDS011;23715;53.652;8.516;2023-07-22T15:21:04;47.45;;;44.33;;
37877;SDS011;23715;53.652;8.516;2023-07-22T15:26:04;49.13;;;45.98;;
37877;SDS011;23715;53.652;8.516;2023-07-22T15:31:07;48.78;;;45.67;;
37877;SDS011;23715;53.652;8.516;2023-07-22T15:36:09;52.90;;;49.77;;
37877;SDS011;23715;53.652;8.516;2023-07-22T15:41:11;51.98;;;48.87;;
37877;SDS011;23715;53.652;8.516;2023-07-22T15:46:12;53.03;;;49.67;;
37877;SDS011;23715;53.652;8.516;2023-07-22T15:51:18;53.87;;;50.55;;
37877;SDS011;23715;53.652;8.516;2023-07-22T15:56:19;52.93;;;49.63;;
37877;SDS011;23715;53.652;8.516;2023-07-22T16:06:19;53.25;;;49.73;;
37877;SDS011;23715;53.652;8.516;2023-07-22T16:11:19;56.45;;;52.78;;
37877;SDS011;23715;53.652;8.516;2023-07-22T16:21:19;53.87;;;50.43;;
37877;SDS011;23715;53.652;8.516;2023-07-22T16:26:19;51.80;;;48.52;;
37877;SDS011;23715;53.652;8.516;2023-07-22T16:31:20;55.67;;;51.95;;
37877;SDS011;23715;53.652;8.516;2023-07-22T16:36:20;52.43;;;48.95;;
37877;SDS011;23715;53.652;8.516;2023-07-22T16:41:24;57.98;;;54.42;;
37877;SDS011;23715;53.652;8.516;2023-07-22T16:46:25;54.08;;;50.58;;
37877;SDS011;23715;53.652;8.516;2023-07-22T16:51:25;52.10;;;48.87;;
37877;SDS011;23715;53.652;8.516;2023-07-22T16:56:26;53.17;;;49.93;;
37877;SDS011;23715;53.652;8.516;2023-07-22T17:06:26;52.23;;;49.05;;
37877;SDS011;23715;53.652;8.516;2023-07-22T17:11:27;55.52;;;52.23;;
37877;SDS011;23715;53.652;8.516;2023-07-22T17:16:34;53.13;;;49.88;;
37877;SDS011;23715;53.652;8.516;2023-07-22T17:21:30;56.20;;;52.50;;
37877;SDS011;23715;53.652;8.516;2023-07-22T17:26:35;60.33;;;56.55;;
37877;SDS011;23715;53.652;8.516;2023-07-22T17:31:35;61.02;;;56.90;;
37877;SDS011;23715;53.652;8.516;2023-07-22T17:36:36;56.73;;;53.33;;
37877;SDS011;23715;53.652;8.516;2023-07-22T17:41:39;60.20;;;56.15;;
37877;SDS011;23715;53.652;8.516;2023-07-22T17:46:40;58.05;;;54.45;;
37877;SDS011;23715;53.652;8.516;2023-07-22T17:51:43;58.50;;;54.83;;
37877;SDS011;23715;53.652;8.516;2023-07-22T17:56:43;59.03;;;55.35;;
37877;SDS011;23715;53.652;8.516;2023-07-22T18:01:43;63.78;;;59.42;;
37877;SDS011;23715;53.652;8.516;2023-07-22T18:06:44;65.55;;;61.58;;
37877;SDS011;23715;53.652;8.516;2023-07-22T18:11:44;65.08;;;60.95;;
37877;SDS011;23715;53.652;8.516;2023-07-22T18:16:45;65.25;;;61.20;;
37877;SDS011;23715;53.652;8.516;2023-07-22T18:26:44;60.58;;;56.77;;
37877;SDS011;23715;53.652;8.516;2023-07-22T18:31:46;62.95;;;58.90;;
37877;SDS011;23715;53.652;8.516;2023-07-22T18:36:47;61.58;;;57.90;;
37877;SDS011;23715;53.652;8.516;2023-07-22T18:41:48;59.57;;;56.03;;
37877;SDS011;23715;53.652;8.516;2023-07-22T18:46:49;58.73;;;55.15;;
37877;SDS011;23715;53.652;8.516;2023-07-22T18:56:49;57.08;;;53.78;;
37877;SDS011;23715;53.652;8.516;2023-07-22T19:01:50;60.40;;;56.65;;
37877;SDS011;23715;53.652;8.516;2023-07-22T19:06:50;62.90;;;59.18;;
37877;SDS011;23715;53.652;8.516;2023-07-22T19:11:51;62.80;;;58.90;;
37877;SDS011;23715;53.652;8.516;2023-07-22T19:16:52;58.08;;;54.73;;
37877;SDS011;23715;53.652;8.516;2023-07-22T19:21:54;59.10;;;55.50;;
37877;SDS011;23715;53.652;8.516;2023-07-22T19:26:54;65.28;;;61.20;;
37877;SDS011;23715;53.652;8.516;2023-07-22T19:31:54;62.33;;;58.58;;
37877;SDS011;23715;53.652;8.516;2023-07-22T19:36:55;60.63;;;56.92;;
37877;SDS011;23715;53.652;8.516;2023-07-22T19:41:55;60.15;;;56.48;;
37877;SDS011;23715;53.652;8.516;2023-07-22T19:46:56;62.83;;;59.00;;
37877;SDS011;23715;53.652;8.516;2023-07-22T19:51:57;62.90;;;59.30;;
37877;SDS011;23715;53.652;8.516;2023-07-22T19:57:03;62.80;;;58.67;;
37877;SDS011;23715;53.652;8.516;2023-07-22T20:02:00;60.80;;;57.10;;
37877;SDS011;23715;53.652;8.516;2023-07-22T20:07:03;59.38;;;55.60;;
37877;SDS011;23715;53.652;8.516;2023-07-22T20:12:05;59.60;;;55.92;;
37877;SDS011;23715;53.652;8.516;2023-07-22T20:17:06;60.25;;;56.70;;
37877;SDS011;23715;53.652;8.516;2023-07-22T20:22:06;61.77;;;58.02;;
37877;SDS011;23715;53.652;8.516;2023-07-22T20:27:07;59.53;;;56.13;;
37877;SDS011;23715;53.652;8.516;2023-07-22T20:32:07;61.02;;;57.45;;
37877;SDS011;23715;53.652;8.516;2023-07-22T20:37:08;63.15;;;58.85;;
37877;SDS011;23715;53.652;8.516;2023-07-22T20:47:07;59.80;;;56.28;;
37877;SDS011;23715;53.652;8.516;2023-07-22T20:52:07;60.90;;;57.15;;
37877;SDS011;23715;53.652;8.516;2023-07-22T20:57:08;59.70;;;56.00;;
37877;SDS011;23715;53.652;8.516;2023-07-22T21:02:09;56.28;;;53.00;;
37877;SDS011;23715;53.652;8.516;2023-07-22T21:07:10;59.13;;;55.33;;
37877;SDS011;23715;53.652;8.516;2023-07-22T21:12:13;59.90;;;56.23;;
37877;SDS011;23715;53.652;8.516;2023-07-22T21:17:13;59.60;;;55.83;;
37877;SDS011;23715;53.652;8.516;2023-07-22T21:22:13;61.68;;;57.80;;
37877;SDS011;23715;53.652;8.516;2023-07-22T21:27:14;59.93;;;55.98;;
37877;SDS011;23715;53.652;8.516;2023-07-22T21:32:14;61.60;;;57.80;;
37877;SDS011;23715;53.652;8.516;2023-07-22T21:37:16;61.45;;;57.62;;
37877;SDS011;23715;53.652;8.516;2023-07-22T21:42:16;59.83;;;56.42;;
37877;SDS011;23715;53.652;8.516;2023-07-22T21:47:17;60.50;;;56.80;;
37877;SDS011;23715;53.652;8.516;2023-07-22T21:52:17;62.33;;;58.60;;
37877;SDS011;23715;53.652;8.516;2023-07-22T22:02:17;62.08;;;58.28;;
37877;SDS011;23715;53.652;8.516;2023-07-22T22:07:17;62.38;;;58.60;;
37877;SDS011;23715;53.652;8.516;2023-07-22T22:12:17;61.60;;;57.93;;
37877;SDS011;23715;53.652;8.516;2023-07-22T22:17:18;62.40;;;58.48;;
37877;SDS011;23715;53.652;8.516;2023-07-22T22:22:18;60.65;;;56.85;;
37877;SDS011;23715;53.652;8.516;2023-07-22T22:27:18;63.92;;;60.12;;
37877;SDS011;23715;53.652;8.516;2023-07-22T22:32:18;64.62;;;60.88;;
37877;SDS011;23715;53.652;8.516;2023-07-22T22:37:19;63.98;;;60.00;;
37877;SDS011;23715;53.652;8.516;2023-07-22T22:47:18;65.42;;;61.33;;
37877;SDS011;23715;53.652;8.516;2023-07-22T22:57:18;68.47;;;64.17;;
37877;SDS011;23715;53.652;8.516;2023-07-22T23:02:20;60.60;;;56.58;;
37877;SDS011;23715;53.652;8.516;2023-07-22T23:12:19;59.35;;;55.55;;
37877;SDS011;23715;53.652;8.516;2023-07-22T23:17:20;63.17;;;59.10;;
37877;SDS011;23715;53.652;8.516;2023-07-22T23:22:20;65.72;;;61.35;;
37877;SDS011;23715;53.652;8.516;2023-07-22T23:27:21;61.92;;;57.93;;
37877;SDS011;23715;53.652;8.516;2023-07-22T23:32:21;64.95;;;60.65;;
37877;SDS011;23715;53.652;8.516;2023-07-22T23:37:21;65.28;;;61.08;;
37877;SDS011;23715;53.652;8.516;2023-07-22T23:42:22;64.63;;;60.33;;
37877;SDS011;23715;53.652;8.516;2023-07-22T23:47:22;64.92;;;60.58;;
37877;SDS011;23715;53.652;8.516;2023-07-22T23:57:22;64.80;;;60.30;;
